PWSweather.com
Personal Weather Stations
Station Observations
KMAMEDFI2
Medfield, MA 02052

Medfield, MA 02052

Lat: 42.1900822, Lon: -71.3296889

Elevation: 138

Station Type: Rainwise WS MK-III

http://www.medfieldweather.com

High Low Average
Temperature 34.2°F1.2°C 16.4°F-8.7°C 22.9°F-5.1°C
Dew Point 14.3°F-9.8°C 1.8°F-16.8°C 6.2°F-14.3°C
Winds 6.9 mph 11.1 kmh Calm Calm 2.0 mph WSW3.2 kmh WSW
Wind Gusts 17.3 mph27.8 kmh -- 4.0 mph6.4 kmh
Humidity 80% 29% 50%
Pressure 30.64 in1037.6 mb 30.43 in1030.5 mb -
Precipitation 0.00 in0.0 mm - -
Hour Temp Dew Point Humidity Winds Wind Gusts Pressure Precip Precip Rate Daily Precip Total
12:00 AM 19.9°F-6.7°C 5.1°F-14.9°C 52% 3.5 mph SW5.6 kmh SW 6.9 mph11.1 kmh 30.43 in1030.5 mb - 0.00 in0.0 mm 0.00 in0.0 mm
12:10 AM 19.9°F-6.7°C 5.1°F-14.9°C 52% 5.8 mph WNW9.3 kmh WNW 9.2 mph14.8 kmh 30.44 in1030.8 mb - 0.00 in0.0 mm 0.00 in0.0 mm
12:20 AM 19.8°F-6.8°C 5.0°F-15.0°C 52% 3.5 mph W5.6 kmh W 8.1 mph13.0 kmh 30.44 in1030.8 mb - 0.00 in0.0 mm 0.00 in0.0 mm
12:30 AM 19.9°F-6.7°C 4.7°F-15.2°C 51% 4.6 mph WSW7.4 kmh WSW 17.3 mph27.8 kmh 30.44 in1030.8 mb - 0.00 in0.0 mm 0.00 in0.0 mm
12:40 AM 19.8°F-6.8°C 4.6°F-15.2°C 51% 4.6 mph W7.4 kmh W 9.2 mph14.8 kmh 30.44 in1030.8 mb - 0.00 in0.0 mm 0.00 in0.0 mm
12:50 AM 19.9°F-6.7°C 4.7°F-15.2°C 51% 3.5 mph WSW5.6 kmh WSW 10.4 mph16.7 kmh 30.43 in1030.5 mb - 0.00 in0.0 mm 0.00 in0.0 mm
01:00 AM 19.8°F-6.8°C 4.5°F-15.3°C 51% 5.8 mph W9.3 kmh W 9.2 mph14.8 kmh 30.44 in1030.8 mb - 0.00 in0.0 mm 0.00 in0.0 mm
01:10 AM 19.8°F-6.8°C 5.0°F-15.0°C 52% 3.5 mph NW5.6 kmh NW 2.3 mph3.7 kmh 30.44 in1030.8 mb - 0.00 in0.0 mm 0.00 in0.0 mm
01:20 AM 19.5°F-6.9°C 4.7°F-15.2°C 52% 2.3 mph S3.7 kmh S 3.5 mph5.6 kmh 30.45 in1031.2 mb - 0.00 in0.0 mm 0.00 in0.0 mm
01:30 AM 19.2°F-7.1°C 4.8°F-15.1°C 53% 2.3 mph NNE3.7 kmh NNE 2.3 mph3.7 kmh 30.45 in1031.2 mb - 0.00 in0.0 mm 0.00 in0.0 mm
01:40 AM 19.1°F-7.2°C 4.3°F-15.4°C 52% 2.3 mph N3.7 kmh N 2.3 mph3.7 kmh 30.46 in1031.5 mb - 0.00 in0.0 mm 0.00 in0.0 mm
01:50 AM 18.9°F-7.3°C 4.6°F-15.2°C 53% 4.6 mph NW7.4 kmh NW 5.8 mph9.3 kmh 30.46 in1031.5 mb - 0.00 in0.0 mm 0.00 in0.0 mm
02:00 AM 18.7°F-7.4°C 5.2°F-14.9°C 55% 1.2 mph WSW1.9 kmh WSW 8.1 mph13.0 kmh 30.46 in1031.5 mb - 0.00 in0.0 mm 0.00 in0.0 mm
02:10 AM 18.6°F-7.4°C 4.7°F-15.2°C 54% 3.5 mph WSW5.6 kmh WSW 8.1 mph13.0 kmh 30.46 in1031.5 mb - 0.00 in0.0 mm 0.00 in0.0 mm
02:20 AM 18.5°F-7.5°C 5.0°F-15.0°C 55% 4.6 mph W7.4 kmh W 9.2 mph14.8 kmh 30.47 in1031.8 mb - 0.00 in0.0 mm 0.00 in0.0 mm
02:30 AM 18.4°F-7.6°C 4.9°F-15.1°C 55% 3.5 mph NW5.6 kmh NW 5.8 mph9.3 kmh 30.47 in1031.8 mb - 0.00 in0.0 mm 0.00 in0.0 mm
02:40 AM 18.0°F-7.8°C 4.5°F-15.3°C 55% 3.5 mph W5.6 kmh W 2.3 mph3.7 kmh 30.48 in1032.2 mb - 0.00 in0.0 mm 0.00 in0.0 mm
02:50 AM 18.1°F-7.7°C 5.4°F-14.8°C 57% 2.3 mph SW3.7 kmh SW 5.8 mph9.3 kmh 30.48 in1032.2 mb - 0.00 in0.0 mm 0.00 in0.0 mm
03:00 AM 18.1°F-7.7°C 4.6°F-15.2°C 55% 3.5 mph NNW5.6 kmh NNW 5.8 mph9.3 kmh 30.48 in1032.2 mb - 0.00 in0.0 mm 0.00 in0.0 mm
03:10 AM 17.9°F-7.8°C 4.4°F-15.3°C 55% 3.5 mph W5.6 kmh W 5.8 mph9.3 kmh 30.48 in1032.2 mb - 0.00 in0.0 mm 0.00 in0.0 mm
03:20 AM 17.7°F-7.9°C 4.2°F-15.4°C 55% 4.6 mph WSW7.4 kmh WSW 2.3 mph3.7 kmh 30.48 in1032.2 mb - 0.00 in0.0 mm 0.00 in0.0 mm
03:30 AM 17.8°F-7.9°C 4.3°F-15.4°C 55% 3.5 mph WSW5.6 kmh WSW 3.5 mph5.6 kmh 30.48 in1032.2 mb - 0.00 in0.0 mm 0.00 in0.0 mm
03:40 AM 17.7°F-7.9°C 4.2°F-15.4°C 55% 4.6 mph SW7.4 kmh SW 5.8 mph9.3 kmh 30.48 in1032.2 mb - 0.00 in0.0 mm 0.00 in0.0 mm
03:50 AM 17.8°F-7.9°C 4.3°F-15.4°C 55% 2.3 mph W3.7 kmh W 2.3 mph3.7 kmh 30.48 in1032.2 mb - 0.00 in0.0 mm 0.00 in0.0 mm
04:00 AM 17.8°F-7.9°C 4.3°F-15.4°C 55% 2.3 mph WNW3.7 kmh WNW 5.8 mph9.3 kmh 30.48 in1032.2 mb - 0.00 in0.0 mm 0.00 in0.0 mm
04:10 AM 17.7°F-7.9°C 4.3°F-15.4°C 55% 2.3 mph SW3.7 kmh SW 3.5 mph5.6 kmh 30.48 in1032.2 mb - 0.00 in0.0 mm 0.00 in0.0 mm
04:20 AM 17.8°F-7.9°C 4.3°F-15.4°C 55% 4.6 mph WSW7.4 kmh WSW 8.1 mph13.0 kmh 30.49 in1032.5 mb - 0.00 in0.0 mm 0.00 in0.0 mm
04:30 AM 17.8°F-7.9°C 4.3°F-15.4°C 55% 5.8 mph WNW9.3 kmh WNW 8.1 mph13.0 kmh 30.49 in1032.5 mb - 0.00 in0.0 mm 0.00 in0.0 mm
04:40 AM 17.6°F-8.0°C 4.2°F-15.4°C 55% 3.5 mph WNW5.6 kmh WNW 8.1 mph13.0 kmh 30.50 in1032.8 mb - 0.00 in0.0 mm 0.00 in0.0 mm
04:50 AM 17.4°F-8.1°C 4.0°F-15.6°C 55% 4.6 mph WNW7.4 kmh WNW 3.5 mph5.6 kmh 30.50 in1032.8 mb - 0.00 in0.0 mm 0.00 in0.0 mm
05:00 AM 17.3°F-8.2°C 3.9°F-15.6°C 55% 3.5 mph WNW5.6 kmh WNW 10.4 mph16.7 kmh 30.51 in1033.2 mb - 0.00 in0.0 mm 0.00 in0.0 mm
05:10 AM 17.1°F-8.3°C 3.7°F-15.7°C 55% 2.3 mph SW3.7 kmh SW 2.3 mph3.7 kmh 30.51 in1033.2 mb - 0.00 in0.0 mm 0.00 in0.0 mm
05:20 AM 17.0°F-8.3°C 3.6°F-15.8°C 55% 3.5 mph WNW5.6 kmh WNW 5.8 mph9.3 kmh 30.52 in1033.5 mb - 0.00 in0.0 mm 0.00 in0.0 mm
05:30 AM 17.1°F-8.3°C 3.3°F-15.9°C 54% 2.3 mph SW3.7 kmh SW 2.3 mph3.7 kmh 30.52 in1033.5 mb - 0.00 in0.0 mm 0.00 in0.0 mm
05:40 AM 16.9°F-8.4°C 3.5°F-15.8°C 55% 3.5 mph NW5.6 kmh NW 8.1 mph13.0 kmh 30.52 in1033.5 mb - 0.00 in0.0 mm 0.00 in0.0 mm
05:50 AM 16.9°F-8.4°C 3.5°F-15.8°C 55% 4.6 mph SW7.4 kmh SW 8.1 mph13.0 kmh 30.52 in1033.5 mb - 0.00 in0.0 mm 0.00 in0.0 mm
06:00 AM 16.9°F-8.4°C 3.1°F-16.1°C 54% 3.5 mph WSW5.6 kmh WSW 3.5 mph5.6 kmh 30.53 in1033.9 mb - 0.00 in0.0 mm 0.00 in0.0 mm
06:10 AM 16.9°F-8.4°C 3.1°F-16.1°C 54% 2.3 mph SW3.7 kmh SW 2.3 mph3.7 kmh 30.53 in1033.9 mb - 0.00 in0.0 mm 0.00 in0.0 mm
06:20 AM 16.8°F-8.4°C 2.6°F-16.3°C 53% 5.8 mph WSW9.3 kmh WSW 6.9 mph11.1 kmh 30.53 in1033.9 mb - 0.00 in0.0 mm 0.00 in0.0 mm
06:30 AM 16.6°F-8.6°C 2.8°F-16.2°C 54% 3.5 mph WNW5.6 kmh WNW 5.8 mph9.3 kmh 30.53 in1033.9 mb - 0.00 in0.0 mm 0.00 in0.0 mm
06:40 AM 16.6°F-8.6°C 2.4°F-16.4°C 53% 2.3 mph WNW3.7 kmh WNW 2.3 mph3.7 kmh 30.54 in1034.2 mb - 0.00 in0.0 mm 0.00 in0.0 mm
06:50 AM 16.6°F-8.6°C 2.4°F-16.4°C 53% 3.5 mph W5.6 kmh W 6.9 mph11.1 kmh 30.54 in1034.2 mb - 0.00 in0.0 mm 0.00 in0.0 mm
07:00 AM 16.4°F-8.7°C 2.3°F-16.5°C 53% 3.5 mph WSW5.6 kmh WSW 6.9 mph11.1 kmh 30.55 in1034.5 mb - 0.00 in0.0 mm 0.00 in0.0 mm
07:20 AM 16.5°F-8.6°C 2.3°F-16.5°C 53% Calm Calm -- 30.56 in1034.9 mb - 0.00 in0.0 mm 0.00 in0.0 mm
07:30 AM 16.6°F-8.6°C 2.0°F-16.7°C 52% 1.2 mph SW1.9 kmh SW 5.8 mph9.3 kmh 30.57 in1035.2 mb - 0.00 in0.0 mm 0.00 in0.0 mm
07:40 AM 16.8°F-8.4°C 1.8°F-16.8°C 51% 1.2 mph N1.9 kmh N 2.3 mph3.7 kmh 30.58 in1035.6 mb - 0.00 in0.0 mm 0.00 in0.0 mm
07:50 AM 16.6°F-8.6°C 2.4°F-16.4°C 53% 3.5 mph WSW5.6 kmh WSW 5.8 mph9.3 kmh 30.58 in1035.6 mb - 0.00 in0.0 mm 0.00 in0.0 mm
08:00 AM 17.1°F-8.3°C 2.1°F-16.6°C 51% 2.3 mph W3.7 kmh W 2.3 mph3.7 kmh 30.58 in1035.6 mb - 0.00 in0.0 mm 0.00 in0.0 mm
08:10 AM 17.8°F-7.9°C 1.8°F-16.8°C 49% 3.5 mph WSW5.6 kmh WSW 8.1 mph13.0 kmh 30.59 in1035.9 mb - 0.00 in0.0 mm 0.00 in0.0 mm
08:20 AM 18.5°F-7.5°C 2.0°F-16.7°C 48% 1.2 mph WNW1.9 kmh WNW 5.8 mph9.3 kmh 30.59 in1035.9 mb - 0.00 in0.0 mm 0.00 in0.0 mm
08:30 AM 19.0°F-7.2°C 2.0°F-16.7°C 47% 6.9 mph W11.1 kmh W 5.8 mph9.3 kmh 30.60 in1036.2 mb - 0.00 in0.0 mm 0.00 in0.0 mm
08:40 AM 19.5°F-6.9°C 3.0°F-16.1°C 48% 3.5 mph NW5.6 kmh NW 8.1 mph13.0 kmh 30.60 in1036.2 mb - 0.00 in0.0 mm 0.00 in0.0 mm
08:50 AM 19.9°F-6.7°C 2.4°F-16.4°C 46% 4.6 mph WSW7.4 kmh WSW 8.1 mph13.0 kmh 30.61 in1036.6 mb - 0.00 in0.0 mm 0.00 in0.0 mm
09:00 AM 20.7°F-6.3°C 2.7°F-16.3°C 45% 4.6 mph W7.4 kmh W 9.2 mph14.8 kmh 30.61 in1036.6 mb - 0.00 in0.0 mm 0.00 in0.0 mm
09:10 AM 21.2°F-6.0°C 2.6°F-16.3°C 44% 4.6 mph WSW7.4 kmh WSW 11.5 mph18.5 kmh 30.62 in1036.9 mb - 0.00 in0.0 mm 0.00 in0.0 mm
09:20 AM 21.5°F-5.8°C 2.9°F-16.2°C 44% 1.2 mph WSW1.9 kmh WSW 6.9 mph11.1 kmh 30.62 in1036.9 mb - 0.00 in0.0 mm 0.00 in0.0 mm
09:30 AM 22.0°F-5.6°C 3.4°F-15.9°C 44% 2.3 mph NW3.7 kmh NW 5.8 mph9.3 kmh 30.62 in1036.9 mb - 0.00 in0.0 mm 0.00 in0.0 mm
09:40 AM 22.8°F-5.1°C 3.1°F-16.1°C 42% 4.6 mph WSW7.4 kmh WSW 9.2 mph14.8 kmh 30.62 in1036.9 mb - 0.00 in0.0 mm 0.00 in0.0 mm
09:50 AM 22.9°F-5.1°C 2.7°F-16.3°C 41% 2.3 mph N3.7 kmh N 5.8 mph9.3 kmh 30.62 in1036.9 mb - 0.00 in0.0 mm 0.00 in0.0 mm
10:00 AM 23.7°F-4.6°C 3.9°F-15.6°C 42% 3.5 mph WSW5.6 kmh WSW 9.2 mph14.8 kmh 30.62 in1036.9 mb - 0.00 in0.0 mm 0.00 in0.0 mm
10:10 AM 24.0°F-4.4°C 3.1°F-16.1°C 40% 5.8 mph WSW9.3 kmh WSW 11.5 mph18.5 kmh 30.62 in1036.9 mb - 0.00 in0.0 mm 0.00 in0.0 mm
10:20 AM 24.9°F-3.9°C 3.9°F-15.6°C 40% 4.6 mph WNW7.4 kmh WNW 6.9 mph11.1 kmh 30.63 in1037.3 mb - 0.00 in0.0 mm 0.00 in0.0 mm
10:30 AM 26.5°F-3.1°C 4.3°F-15.4°C 38% 4.6 mph WSW7.4 kmh WSW 6.9 mph11.1 kmh 30.64 in1037.6 mb - 0.00 in0.0 mm 0.00 in0.0 mm
10:40 AM 27.3°F-2.6°C 5.0°F-15.0°C 38% 2.3 mph W3.7 kmh W 5.8 mph9.3 kmh 30.63 in1037.3 mb - 0.00 in0.0 mm 0.00 in0.0 mm
10:50 AM 27.9°F-2.3°C 5.5°F-14.7°C 38% 3.5 mph NW5.6 kmh NW 11.5 mph18.5 kmh 30.63 in1037.3 mb - 0.00 in0.0 mm 0.00 in0.0 mm
11:00 AM 28.0°F-2.2°C 5.6°F-14.7°C 38% 3.5 mph WSW5.6 kmh WSW 9.2 mph14.8 kmh 30.63 in1037.3 mb - 0.00 in0.0 mm 0.00 in0.0 mm
11:10 AM 28.8°F-1.8°C 5.2°F-14.9°C 36% 4.6 mph NNE7.4 kmh NNE 9.2 mph14.8 kmh 30.63 in1037.3 mb - 0.00 in0.0 mm 0.00 in0.0 mm
11:20 AM 29.2°F-1.6°C 6.1°F-14.4°C 37% 3.5 mph SSW5.6 kmh SSW 5.8 mph9.3 kmh 30.62 in1036.9 mb - 0.00 in0.0 mm 0.00 in0.0 mm
11:30 AM 29.8°F-1.2°C 5.4°F-14.8°C 35% 2.3 mph W3.7 kmh W 3.5 mph5.6 kmh 30.62 in1036.9 mb - 0.00 in0.0 mm 0.00 in0.0 mm
11:40 AM 30.3°F-0.9°C 5.9°F-14.5°C 35% 4.6 mph WNW7.4 kmh WNW 6.9 mph11.1 kmh 30.61 in1036.6 mb - 0.00 in0.0 mm 0.00 in0.0 mm
11:50 AM 30.0°F-1.1°C 6.2°F-14.3°C 36% 1.2 mph SW1.9 kmh SW 2.3 mph3.7 kmh 30.61 in1036.6 mb - 0.00 in0.0 mm 0.00 in0.0 mm
12:00 PM 30.9°F-0.6°C 5.1°F-14.9°C 33% 2.3 mph SW3.7 kmh SW 2.3 mph3.7 kmh 30.60 in1036.2 mb - 0.00 in0.0 mm 0.00 in0.0 mm
12:10 PM 31.3°F-0.4°C 6.1°F-14.4°C 34% 2.3 mph SW3.7 kmh SW 2.3 mph3.7 kmh 30.60 in1036.2 mb - 0.00 in0.0 mm 0.00 in0.0 mm
12:20 PM 31.3°F-0.4°C 5.5°F-14.7°C 33% 2.3 mph NE3.7 kmh NE 2.3 mph3.7 kmh 30.60 in1036.2 mb - 0.00 in0.0 mm 0.00 in0.0 mm
12:30 PM 31.3°F-0.4°C 6.1°F-14.4°C 34% 4.6 mph WSW7.4 kmh WSW 8.1 mph13.0 kmh 30.60 in1036.2 mb - 0.00 in0.0 mm 0.00 in0.0 mm
12:40 PM 31.8°F-0.1°C 6.5°F-14.2°C 34% 3.5 mph NW5.6 kmh NW 6.9 mph11.1 kmh 30.59 in1035.9 mb - 0.00 in0.0 mm 0.00 in0.0 mm
12:50 PM 32.4°F0.2°C 5.1°F-14.9°C 31% 4.6 mph W7.4 kmh W 13.8 mph22.2 kmh 30.59 in1035.9 mb - 0.00 in0.0 mm 0.00 in0.0 mm
01:00 PM 32.5°F0.3°C 5.2°F-14.9°C 31% 2.3 mph N3.7 kmh N 3.5 mph5.6 kmh 30.59 in1035.9 mb - 0.00 in0.0 mm 0.00 in0.0 mm
01:10 PM 33.5°F0.8°C 6.0°F-14.4°C 31% 3.5 mph W5.6 kmh W 6.9 mph11.1 kmh 30.59 in1035.9 mb - 0.00 in0.0 mm 0.00 in0.0 mm
01:20 PM 33.1°F0.6°C 5.0°F-15.0°C 30% 4.6 mph NNE7.4 kmh NNE 9.2 mph14.8 kmh 30.59 in1035.9 mb - 0.00 in0.0 mm 0.00 in0.0 mm
01:30 PM 33.3°F0.7°C 5.9°F-14.5°C 31% 4.6 mph NW7.4 kmh NW 6.9 mph11.1 kmh 30.58 in1035.6 mb - 0.00 in0.0 mm 0.00 in0.0 mm
01:40 PM 33.3°F0.7°C 5.1°F-14.9°C 30% 3.5 mph WNW5.6 kmh WNW 2.3 mph3.7 kmh 30.58 in1035.6 mb - 0.00 in0.0 mm 0.00 in0.0 mm
01:50 PM 33.2°F0.7°C 5.1°F-14.9°C 30% 1.2 mph NW1.9 kmh NW 2.3 mph3.7 kmh 30.58 in1035.6 mb - 0.00 in0.0 mm 0.00 in0.0 mm
02:00 PM 33.7°F0.9°C 5.5°F-14.7°C 30% 3.5 mph N5.6 kmh N 3.5 mph5.6 kmh 30.59 in1035.9 mb - 0.00 in0.0 mm 0.00 in0.0 mm
02:10 PM 34.2°F1.2°C 5.9°F-14.5°C 30% 2.3 mph N3.7 kmh N 2.3 mph3.7 kmh 30.59 in1035.9 mb - 0.00 in0.0 mm 0.00 in0.0 mm
02:20 PM 33.9°F1.1°C 4.9°F-15.1°C 29% 3.5 mph S5.6 kmh S 2.3 mph3.7 kmh 30.58 in1035.6 mb - 0.00 in0.0 mm 0.00 in0.0 mm
02:30 PM 33.9°F1.1°C 4.9°F-15.1°C 29% 2.3 mph SW3.7 kmh SW 3.5 mph5.6 kmh 30.59 in1035.9 mb - 0.00 in0.0 mm 0.00 in0.0 mm
02:40 PM 33.9°F1.1°C 5.7°F-14.6°C 30% 1.2 mph N1.9 kmh N 1.2 mph1.9 kmh 30.58 in1035.6 mb - 0.00 in0.0 mm 0.00 in0.0 mm
02:50 PM 33.3°F0.7°C 5.1°F-14.9°C 30% Calm Calm -- 30.58 in1035.6 mb - 0.00 in0.0 mm 0.00 in0.0 mm
03:00 PM 32.5°F0.3°C 5.2°F-14.9°C 31% 3.5 mph NW5.6 kmh NW 2.3 mph3.7 kmh 30.58 in1035.6 mb - 0.00 in0.0 mm 0.00 in0.0 mm
03:10 PM 32.6°F0.3°C 5.3°F-14.8°C 31% 1.2 mph SW1.9 kmh SW 2.3 mph3.7 kmh 30.58 in1035.6 mb - 0.00 in0.0 mm 0.00 in0.0 mm
03:20 PM 32.5°F0.3°C 5.9°F-14.5°C 32% 1.2 mph WSW1.9 kmh WSW 3.5 mph5.6 kmh 30.59 in1035.9 mb - 0.00 in0.0 mm 0.00 in0.0 mm
03:30 PM 32.4°F0.2°C 4.3°F-15.4°C 30% 2.3 mph S3.7 kmh S 2.3 mph3.7 kmh 30.58 in1035.6 mb - 0.00 in0.0 mm 0.00 in0.0 mm
03:40 PM 32.3°F0.2°C 5.7°F-14.6°C 32% 2.3 mph WSW3.7 kmh WSW 2.3 mph3.7 kmh 30.58 in1035.6 mb - 0.00 in0.0 mm 0.00 in0.0 mm
03:50 PM 32.1°F0.1°C 4.1°F-15.5°C 30% Calm Calm -- 30.58 in1035.6 mb - 0.00 in0.0 mm 0.00 in0.0 mm
04:00 PM 31.5°F-0.3°C 5.0°F-15.0°C 32% Calm Calm 1.2 mph1.9 kmh 30.57 in1035.2 mb - 0.00 in0.0 mm 0.00 in0.0 mm
04:10 PM 30.6°F-0.8°C 4.8°F-15.1°C 33% Calm Calm -- 30.57 in1035.2 mb - 0.00 in0.0 mm 0.00 in0.0 mm
04:20 PM 29.8°F-1.2°C 4.8°F-15.1°C 34% Calm Calm -- 30.57 in1035.2 mb - 0.00 in0.0 mm 0.00 in0.0 mm
04:30 PM 28.7°F-1.8°C 6.2°F-14.3°C 38% Calm Calm 1.2 mph1.9 kmh 30.57 in1035.2 mb - 0.00 in0.0 mm 0.00 in0.0 mm
04:40 PM 28.2°F-2.1°C 6.3°F-14.3°C 39% Calm Calm -- 30.57 in1035.2 mb - 0.00 in0.0 mm 0.00 in0.0 mm
04:50 PM 27.3°F-2.6°C 6.6°F-14.1°C 41% Calm Calm -- 30.57 in1035.2 mb - 0.00 in0.0 mm 0.00 in0.0 mm
05:00 PM 26.1°F-3.3°C 5.6°F-14.7°C 41% Calm Calm -- 30.58 in1035.6 mb - 0.00 in0.0 mm 0.00 in0.0 mm
05:10 PM 25.2°F-3.8°C 6.8°F-14.0°C 45% Calm Calm -- 30.58 in1035.6 mb - 0.00 in0.0 mm 0.00 in0.0 mm
05:20 PM 24.2°F-4.3°C 6.3°F-14.3°C 46% Calm Calm -- 30.58 in1035.6 mb - 0.00 in0.0 mm 0.00 in0.0 mm
05:30 PM 23.5°F-4.7°C 5.2°F-14.9°C 45% Calm Calm -- 30.58 in1035.6 mb - 0.00 in0.0 mm 0.00 in0.0 mm
05:40 PM 23.0°F-5.0°C 6.2°F-14.3°C 48% Calm Calm -- 30.58 in1035.6 mb - 0.00 in0.0 mm 0.00 in0.0 mm
05:50 PM 22.4°F-5.3°C 6.1°F-14.4°C 49% Calm Calm -- 30.58 in1035.6 mb - 0.00 in0.0 mm 0.00 in0.0 mm
06:00 PM 22.5°F-5.3°C 7.1°F-13.8°C 51% Calm Calm -- 30.58 in1035.6 mb - 0.00 in0.0 mm 0.00 in0.0 mm
06:10 PM 22.1°F-5.5°C 7.6°F-13.6°C 53% Calm Calm -- 30.58 in1035.6 mb - 0.00 in0.0 mm 0.00 in0.0 mm
06:20 PM 21.6°F-5.8°C 7.0°F-13.9°C 53% Calm Calm -- 30.58 in1035.6 mb - 0.00 in0.0 mm 0.00 in0.0 mm
06:30 PM 20.9°F-6.2°C 6.8°F-14.0°C 54% Calm Calm -- 30.59 in1035.9 mb - 0.00 in0.0 mm 0.00 in0.0 mm
06:40 PM 21.4°F-5.9°C 8.9°F-12.8°C 58% Calm Calm -- 30.58 in1035.6 mb - 0.00 in0.0 mm 0.00 in0.0 mm
06:50 PM 20.9°F-6.2°C 8.4°F-13.1°C 58% Calm Calm -- 30.59 in1035.9 mb - 0.00 in0.0 mm 0.00 in0.0 mm
07:00 PM 20.8°F-6.2°C 9.5°F-12.5°C 61% Calm Calm -- 30.58 in1035.6 mb - 0.00 in0.0 mm 0.00 in0.0 mm
07:10 PM 21.0°F-6.1°C 9.7°F-12.4°C 61% Calm Calm -- 30.58 in1035.6 mb - 0.00 in0.0 mm 0.00 in0.0 mm
07:20 PM 20.9°F-6.2°C 10.3°F-12.1°C 63% Calm Calm -- 30.58 in1035.6 mb - 0.00 in0.0 mm 0.00 in0.0 mm
07:30 PM 21.1°F-6.1°C 10.5°F-11.9°C 63% Calm Calm -- 30.59 in1035.9 mb - 0.00 in0.0 mm 0.00 in0.0 mm
07:40 PM 21.5°F-5.8°C 9.7°F-12.4°C 60% Calm Calm -- 30.59 in1035.9 mb - 0.00 in0.0 mm 0.00 in0.0 mm
07:50 PM 21.8°F-5.7°C 9.7°F-12.4°C 59% Calm Calm -- 30.58 in1035.6 mb - 0.00 in0.0 mm 0.00 in0.0 mm
08:00 PM 21.6°F-5.8°C 9.8°F-12.3°C 60% Calm Calm -- 30.57 in1035.2 mb - 0.00 in0.0 mm 0.00 in0.0 mm
08:10 PM 21.2°F-6.0°C 9.5°F-12.5°C 60% Calm Calm -- 30.58 in1035.6 mb - 0.00 in0.0 mm 0.00 in0.0 mm
08:20 PM 21.4°F-5.9°C 10.0°F-12.2°C 61% Calm Calm -- 30.58 in1035.6 mb - 0.00 in0.0 mm 0.00 in0.0 mm
08:30 PM 21.5°F-5.8°C 10.5°F-11.9°C 62% Calm Calm -- 30.57 in1035.2 mb - 0.00 in0.0 mm 0.00 in0.0 mm
08:40 PM 21.3°F-5.9°C 10.7°F-11.8°C 63% Calm Calm -- 30.57 in1035.2 mb - 0.00 in0.0 mm 0.00 in0.0 mm
08:50 PM 20.9°F-6.2°C 11.3°F-11.5°C 66% Calm Calm -- 30.58 in1035.6 mb - 0.00 in0.0 mm 0.00 in0.0 mm
09:00 PM 20.6°F-6.3°C 11.7°F-11.3°C 68% Calm Calm -- 30.58 in1035.6 mb - 0.00 in0.0 mm 0.00 in0.0 mm
09:10 PM 20.2°F-6.6°C 11.7°F-11.3°C 69% Calm Calm -- 30.58 in1035.6 mb - 0.00 in0.0 mm 0.00 in0.0 mm
09:20 PM 20.8°F-6.2°C 12.6°F-10.8°C 70% Calm Calm -- 30.58 in1035.6 mb - 0.00 in0.0 mm 0.00 in0.0 mm
09:30 PM 20.6°F-6.3°C 13.0°F-10.6°C 72% Calm Calm -- 30.58 in1035.6 mb - 0.00 in0.0 mm 0.00 in0.0 mm
09:40 PM 20.0°F-6.7°C 13.0°F-10.6°C 74% Calm Calm -- 30.58 in1035.6 mb - 0.00 in0.0 mm 0.00 in0.0 mm
09:50 PM 19.9°F-6.7°C 13.3°F-10.4°C 75% Calm Calm -- 30.59 in1035.9 mb - 0.00 in0.0 mm 0.00 in0.0 mm
10:00 PM 20.2°F-6.6°C 13.8°F-10.1°C 76% Calm Calm -- 30.58 in1035.6 mb - 0.00 in0.0 mm 0.00 in0.0 mm
10:10 PM 20.5°F-6.4°C 14.1°F-9.9°C 76% Calm Calm -- 30.58 in1035.6 mb - 0.00 in0.0 mm 0.00 in0.0 mm
10:20 PM 20.4°F-6.4°C 14.3°F-9.8°C 77% Calm Calm -- 30.58 in1035.6 mb - 0.00 in0.0 mm 0.00 in0.0 mm
10:30 PM 20.2°F-6.6°C 14.1°F-9.9°C 77% Calm Calm -- 30.57 in1035.2 mb - 0.00 in0.0 mm 0.00 in0.0 mm
10:40 PM 19.9°F-6.7°C 14.1°F-9.9°C 78% Calm Calm -- 30.57 in1035.2 mb - 0.00 in0.0 mm 0.00 in0.0 mm
10:50 PM 19.8°F-6.8°C 14.3°F-9.8°C 79% Calm Calm -- 30.57 in1035.2 mb - 0.00 in0.0 mm 0.00 in0.0 mm
11:00 PM 19.7°F-6.8°C 14.0°F-10.0°C 78% Calm Calm -- 30.57 in1035.2 mb - 0.00 in0.0 mm 0.00 in0.0 mm
11:10 PM 19.7°F-6.8°C 14.0°F-10.0°C 78% Calm Calm -- 30.57 in1035.2 mb - 0.00 in0.0 mm 0.00 in0.0 mm
11:20 PM 19.5°F-6.9°C 14.1°F-9.9°C 79% Calm Calm -- 30.56 in1034.9 mb - 0.00 in0.0 mm 0.00 in0.0 mm
11:30 PM 19.2°F-7.1°C 14.0°F-10.0°C 80% Calm Calm -- 30.56 in1034.9 mb - 0.00 in0.0 mm 0.00 in0.0 mm
11:40 PM 19.3°F-7.1°C 14.1°F-9.9°C 80% Calm Calm -- 30.56 in1034.9 mb - 0.00 in0.0 mm 0.00 in0.0 mm
11:50 PM 19.3°F-7.1°C 14.1°F-9.9°C 80% Calm Calm -- 30.56 in1034.9 mb - 0.00 in0.0 mm 0.00 in0.0 mm